Sawyer International Airport
KSAW : now visible

Airfield :











YOU CAN JOIN US ON...

 
LOGIN :

Register | Disclaimer

   EN    FR    IT 

 









Legend :    VFR   Marginal VFR   IFR   Intensive IFR   Very Intensive IFR
Visi :
Ceiling :
>= 8 km
>= 3000ft
5 to 8 km
1000 to 3000 ft
1500m to 5 km
500 to 1000 ft
800 to 1500m
200 to 500 ft
< 800m
< 200 ft
Symbols :   Thunderstorms  Fog  Heavy snow  Heavy precipitations  Wind > 20 kt






- Airport Elevation : 1221 ft


KSAW - Sawyer International

CURRENT METAR :
  • 221547Z 18009KT 10SM -RA SCT007 BKN019 OVC046 06/05 A2917

EXPIRED METARs :
  • 221514Z 18007KT 8SM -RA SCT006 BKN037 OVC043 06/05 A2917
  • 221447Z 18007KT 4SM -RA OVC006 07/05 A2918
  • 221402Z 17007KT 10SM -RA SCT006 BKN009 OVC025 07/05 A2919
  • 221347Z 19007KT 10SM -RA BKN011 BKN015 OVC039 07/05 A2919

TAF KSAW
Valid from the 22 at 12:00 until the 23 at 12:00 UTC


221120Z 2212/2312 16008KT P6SM -SHRA OVC015
FM221700 20009KT P6SM -SHRA OVC020
FM222200 22010KT P6SM VCSH BKN021
FM222300 23010KT P6SM VCSH BKN019
FM230100 23010KT P6SM BKN017



MET'MAP, your aeronautical weather chart ! - Copyright ORBIFLY December 2007 - Disclaimer

ORBIFLY MET'MAP TEAM :

Programming & Development : Alexandra Zaïnal
Concept & Development : Baudouin d'Aumeries
Co-Development & Prog : Marc-Olivier Méhu
Technical & hardware support : Manuel Goepfert

Contact : metmap@orbifly.com




SOURCES & CREDITS :

   NOAA       Earth
Advisory